Time;durP1;ratioP1;P1;durP2;ratioP2;P2;SDS_P1;SDS_P2;PMS_P1;PMS_P2;Temp;Humidity;BMP_temperature;BMP_pressure;BME280_temperature;BME280_humidity;BME280_pressure;Samples;Min_cycle;Max_cycle;Signal;HPM_P1;HPM_P2
2022/03/22 00:00:57;;;;;;;48.38;30.70;;;6.10;99.90;;;;;;4976048;28;20394;-66
2022/03/22 00:03:26;;;;;;;52.05;31.67;;;6.00;99.90;;;;;;4982661;28;20126;-64
2022/03/22 00:05:52;;;;;;;51.58;31.40;;;6.00;99.90;;;;;;4995943;28;20121;-65
2022/03/22 00:08:18;;;;;;;47.03;31.45;;;6.00;99.90;;;;;;4994219;28;20086;-65
2022/03/22 00:10:44;;;;;;;49.88;31.42;;;6.00;99.90;;;;;;4994816;28;20061;-65
2022/03/22 00:13:10;;;;;;;51.70;30.73;;;5.90;99.90;;;;;;4990109;28;20047;-65
2022/03/22 00:15:36;;;;;;;62.88;31.52;;;5.90;99.90;;;;;;4994343;28;20073;-65
2022/03/22 00:18:02;;;;;;;48.60;31.15;;;5.90;99.90;;;;;;4994371;28;20065;-65
2022/03/22 00:20:28;;;;;;;48.70;30.45;;;5.90;99.90;;;;;;4995338;28;20132;-66
2022/03/22 00:22:54;;;;;;;53.17;29.65;;;5.90;99.90;;;;;;4995188;28;20534;-66
2022/03/22 00:25:20;;;;;;;49.58;30.98;;;5.80;99.90;;;;;;5010203;28;20058;-65
2022/03/22 00:27:57;;;;;;;49.90;30.38;;;5.90;99.90;;;;;;4993434;28;20133;-66
2022/03/22 00:30:28;;;;;;;49.05;30.48;;;5.80;99.90;;;;;;4994101;28;20050;-65
2022/03/22 00:32:56;;;;;;;47.83;31.10;;;5.80;99.90;;;;;;4990335;28;20070;-66
2022/03/22 00:35:29;;;;;;;48.90;29.10;;;5.80;99.90;;;;;;4974587;28;20458;-67
2022/03/22 00:37:56;;;;;;;49.78;31.52;;;5.70;99.90;;;;;;4974696;28;20420;-66
2022/03/22 00:40:24;;;;;;;47.05;29.45;;;5.70;99.90;;;;;;4989960;28;20046;-65
2022/03/22 00:42:53;;;;;;;43.38;29.58;;;5.60;99.90;;;;;;5009831;28;20131;-66
2022/03/22 00:45:20;;;;;;;47.15;28.30;;;5.60;99.90;;;;;;4995094;28;20192;-66
2022/03/22 00:47:47;;;;;;;49.10;30.45;;;5.60;99.90;;;;;;4995001;28;20054;-66
2022/03/22 00:50:15;;;;;;;46.53;29.35;;;5.50;99.90;;;;;;4993755;28;20422;-66
2022/03/22 00:52:41;;;;;;;49.10;30.98;;;5.50;99.90;;;;;;4977532;28;20054;-65
2022/03/22 00:55:08;;;;;;;52.35;31.40;;;5.50;99.90;;;;;;4993337;28;20081;-65
2022/03/22 00:57:34;;;;;;;46.65;30.65;;;5.50;99.90;;;;;;4994419;28;20055;-66
2022/03/22 01:00:01;;;;;;;52.63;31.58;;;5.50;99.90;;;;;;5006950;28;20541;-66
2022/03/22 01:02:27;;;;;;;53.33;32.67;;;5.40;99.90;;;;;;4981614;28;20054;-66
2022/03/22 01:04:53;;;;;;;46.22;29.45;;;5.50;99.90;;;;;;4993146;28;20058;-65
2022/03/22 01:07:18;;;;;;;48.95;30.85;;;5.50;99.90;;;;;;4993402;28;20069;-66
2022/03/22 01:09:44;;;;;;;51.60;31.98;;;5.40;99.90;;;;;;4994562;28;20085;-66
2022/03/22 01:12:10;;;;;;;50.05;30.50;;;5.40;99.90;;;;;;4976746;28;20061;-65
2022/03/22 01:14:35;;;;;;;53.17;31.10;;;5.40;99.90;;;;;;5009404;28;20407;-66
2022/03/22 01:17:01;;;;;;;53.55;32.78;;;5.40;99.90;;;;;;4986177;28;20130;-66
2022/03/22 01:19:26;;;;;;;54.35;31.30;;;5.30;99.90;;;;;;4989057;28;20427;-66
2022/03/22 01:21:52;;;;;;;44.95;28.92;;;5.30;99.90;;;;;;4993631;28;20061;-67
2022/03/22 01:24:18;;;;;;;49.55;30.85;;;5.30;99.90;;;;;;4992684;28;20050;-67
2022/03/22 01:26:44;;;;;;;48.45;30.02;;;5.20;99.90;;;;;;4992296;28;20062;-67
2022/03/22 01:29:11;;;;;;;48.30;29.75;;;5.30;99.90;;;;;;4994095;28;20061;-65
2022/03/22 01:31:37;;;;;;;48.20;30.05;;;5.20;99.90;;;;;;4993285;28;20509;-66
2022/03/22 01:34:03;;;;;;;44.72;28.83;;;5.20;99.90;;;;;;4992884;28;20085;-65
2022/03/22 01:36:31;;;;;;;44.95;27.58;;;5.10;99.90;;;;;;4992337;28;20073;-66
2022/03/22 01:38:57;;;;;;;44.25;28.75;;;5.10;99.90;;;;;;4992455;28;20483;-66
2022/03/22 01:41:23;;;;;;;45.90;29.80;;;5.10;99.90;;;;;;4992686;28;20050;-66
2022/03/22 01:43:49;;;;;;;46.60;29.20;;;5.20;99.90;;;;;;4992585;28;20514;-66
2022/03/22 01:46:16;;;;;;;48.35;29.85;;;5.10;99.90;;;;;;5008164;28;20134;-68
2022/03/22 01:48:42;;;;;;;47.97;30.83;;;5.10;99.90;;;;;;4974739;28;20094;-66
2022/03/22 01:51:09;;;;;;;50.40;30.30;;;5.00;99.90;;;;;;4974753;28;20055;-67
2022/03/22 01:53:36;;;;;;;48.78;30.45;;;5.10;99.90;;;;;;4985147;28;20066;-67
2022/03/22 01:56:02;;;;;;;51.28;31.25;;;5.00;99.90;;;;;;4994111;28;20091;-67
2022/03/22 01:58:27;;;;;;;48.10;31.13;;;5.00;99.90;;;;;;4989502;28;20501;-67
2022/03/22 02:05:51;;;;;;;46.88;30.30;;;5.00;99.90;;;;;;4973337;28;20055;-66
2022/03/22 02:06:35;;;;;;;55.92;30.00;;;4.90;99.90;;;;;;4992460;28;20116;-67
2022/03/22 02:09:01;;;;;;;50.10;29.90;;;4.90;99.90;;;;;;5008830;28;20058;-66
2022/03/22 02:11:27;;;;;;;45.13;29.55;;;4.80;99.90;;;;;;4992957;28;20100;-66
2022/03/22 02:13:52;;;;;;;43.55;28.30;;;4.80;99.90;;;;;;4993466;28;20050;-66
2022/03/22 02:16:18;;;;;;;48.85;30.13;;;4.80;99.90;;;;;;4992628;28;20058;-68
2022/03/22 02:18:45;;;;;;;47.95;28.88;;;4.80;99.90;;;;;;4961469;28;20055;-66
2022/03/22 02:21:18;;;;;;;40.75;27.58;;;4.70;99.90;;;;;;4973527;28;20057;-67
2022/03/22 02:23:55;;;;;;;48.63;28.67;;;4.80;99.90;;;;;;4974251;28;20501;-66
2022/03/22 02:26:22;;;;;;;46.53;29.15;;;4.70;99.90;;;;;;4978040;28;20069;-66
2022/03/22 02:28:53;;;;;;;44.05;27.80;;;4.70;99.90;;;;;;4991315;28;20077;-66
2022/03/22 02:31:23;;;;;;;45.45;30.23;;;4.70;99.90;;;;;;5008819;28;20074;-66
2022/03/22 02:33:48;;;;;;;47.78;28.05;;;4.70;99.90;;;;;;4983272;28;20066;-66
2022/03/22 02:36:14;;;;;;;46.38;29.02;;;4.70;99.90;;;;;;4972488;28;20078;-67
2022/03/22 02:38:40;;;;;;;51.08;30.05;;;4.70;99.90;;;;;;4972671;28;20061;-67
2022/03/22 02:41:06;;;;;;;47.10;29.17;;;4.60;99.90;;;;;;4973707;28;20050;-67
2022/03/22 02:43:32;;;;;;;45.97;28.23;;;4.60;99.90;;;;;;4978473;28;20446;-66
2022/03/22 02:45:58;;;;;;;44.53;28.85;;;4.60;99.90;;;;;;5008730;28;20054;-68
2022/03/22 02:48:24;;;;;;;48.13;31.48;;;4.60;99.90;;;;;;4987012;28;20122;-66
2022/03/22 02:50:51;;;;;;;46.10;29.35;;;4.60;99.90;;;;;;4975292;28;20527;-67
2022/03/22 02:53:17;;;;;;;45.40;28.77;;;4.60;99.90;;;;;;4991675;28;20062;-68
2022/03/22 02:55:43;;;;;;;46.50;29.45;;;4.60;99.90;;;;;;4993390;28;20450;-66
2022/03/22 02:58:08;;;;;;;48.28;28.52;;;4.60;99.90;;;;;;4975771;28;20054;-67
2022/03/22 03:00:35;;;;;;;46.65;29.23;;;4.50;99.90;;;;;;4992620;28;20086;-68
2022/03/22 03:03:01;;;;;;;48.58;30.10;;;4.50;99.90;;;;;;4986192;28;20419;-67
2022/03/22 03:05:27;;;;;;;48.45;29.92;;;4.50;99.90;;;;;;4991161;28;20056;-67
2022/03/22 03:07:52;;;;;;;47.38;29.85;;;4.50;99.90;;;;;;4991902;28;20125;-66
2022/03/22 03:10:19;;;;;;;51.10;30.83;;;4.50;99.90;;;;;;4992153;28;20050;-67
2022/03/22 03:12:45;;;;;;;48.40;30.50;;;4.50;99.90;;;;;;4995240;28;20089;-67
2022/03/22 03:15:11;;;;;;;45.33;30.15;;;4.50;99.90;;;;;;5011689;28;20094;-66
2022/03/22 03:17:38;;;;;;;44.35;29.02;;;4.50;99.90;;;;;;4994855;28;20550;-68
2022/03/22 03:20:05;;;;;;;48.63;29.77;;;4.50;99.90;;;;;;4994988;28;20084;-66
2022/03/22 03:22:30;;;;;;;49.33;29.38;;;4.50;99.90;;;;;;5011746;28;20070;-67
2022/03/22 03:24:56;;;;;;;49.72;29.60;;;4.50;99.90;;;;;;4994865;28;20069;-68
2022/03/22 03:27:22;;;;;;;45.63;29.90;;;4.50;99.90;;;;;;4993931;28;20094;-66
2022/03/22 03:29:48;;;;;;;44.58;28.65;;;4.40;99.90;;;;;;5008340;28;20130;-66
2022/03/22 03:32:14;;;;;;;46.70;30.00;;;4.40;99.90;;;;;;4988830;28;20061;-67
2022/03/22 03:34:39;;;;;;;53.40;30.42;;;4.40;99.90;;;;;;4994967;28;20050;-66
2022/03/22 03:37:06;;;;;;;42.70;28.58;;;4.50;99.90;;;;;;4994848;28;20050;-67
2022/03/22 03:39:32;;;;;;;44.65;28.42;;;4.50;99.90;;;;;;5007843;28;20527;-67
2022/03/22 03:41:58;;;;;;;46.72;31.33;;;4.40;99.90;;;;;;4989500;28;20062;-66
2022/03/22 03:47:12;;;;;;;47.25;30.92;;;4.50;99.90;;;;;;4995995;28;20138;-65
2022/03/22 03:49:39;;;;;;;44.63;28.90;;;4.50;99.90;;;;;;4994765;28;20061;-67
2022/03/22 03:52:13;;;;;;;47.33;30.75;;;4.40;99.90;;;;;;4996190;28;20058;-67
2022/03/22 03:54:39;;;;;;;51.92;31.02;;;4.40;99.90;;;;;;4995665;28;20069;-66
2022/03/22 03:57:06;;;;;;;52.38;31.58;;;4.50;99.90;;;;;;4993290;28;20058;-68
2022/03/22 03:59:32;;;;;;;45.40;29.95;;;4.40;99.90;;;;;;4993859;28;20054;-68
2022/03/22 04:01:58;;;;;;;47.72;29.23;;;4.40;99.90;;;;;;4990873;28;20483;-66
2022/03/22 04:04:24;;;;;;;44.33;30.77;;;4.40;99.90;;;;;;4974970;28;20121;-67
2022/03/22 04:06:49;;;;;;;49.20;31.02;;;4.40;99.90;;;;;;4987490;28;20103;-66
2022/03/22 04:09:16;;;;;;;46.58;29.75;;;4.40;99.90;;;;;;4994859;28;20126;-67
2022/03/22 04:11:43;;;;;;;48.13;30.05;;;4.40;99.90;;;;;;5010299;28;20069;-66
2022/03/22 04:14:08;;;;;;;46.03;30.33;;;4.40;99.90;;;;;;5010527;28;20077;-66
2022/03/22 04:16:34;;;;;;;49.92;29.63;;;4.40;99.90;;;;;;4992585;28;20054;-66
2022/03/22 04:19:00;;;;;;;48.22;29.10;;;4.30;99.90;;;;;;4978547;28;20487;-68
2022/03/22 04:21:26;;;;;;;45.78;30.63;;;4.30;99.90;;;;;;4994426;28;20376;-66
2022/03/22 04:23:51;;;;;;;46.45;30.23;;;4.30;99.90;;;;;;4994792;28;20101;-67
2022/03/22 04:26:17;;;;;;;44.47;28.85;;;4.30;99.90;;;;;;4994748;28;20065;-66
2022/03/22 04:34:11;;;;;;;44.15;29.92;;;4.30;99.90;;;;;;4974229;28;20058;-66
2022/03/22 04:36:37;;;;;;;43.95;29.25;;;4.30;99.90;;;;;;4974865;28;20046;-67
2022/03/22 04:39:03;;;;;;;50.95;31.38;;;4.20;99.90;;;;;;4974871;28;20055;-64
2022/03/22 04:41:29;;;;;;;46.03;30.08;;;4.20;99.90;;;;;;4973892;28;20071;-64
2022/03/22 04:43:54;;;;;;;46.08;29.52;;;4.20;99.90;;;;;;4958380;28;20153;-64
2022/03/22 04:46:20;;;;;;;44.55;28.65;;;4.20;99.90;;;;;;4983650;28;20097;-64
2022/03/22 04:48:46;;;;;;;44.58;30.65;;;4.10;99.90;;;;;;4993743;28;20113;-64
2022/03/22 04:56:47;;;;;;;45.53;29.77;;;4.10;99.90;;;;;;4993097;28;20058;-63
2022/03/22 04:59:15;;;;;;;47.70;31.55;;;4.10;99.90;;;;;;4993639;28;20105;-65
2022/03/22 05:01:42;;;;;;;49.78;31.33;;;4.10;99.90;;;;;;4992448;28;20601;-65
2022/03/22 05:04:10;;;;;;;45.40;30.45;;;4.10;99.90;;;;;;4991927;28;20050;-65
2022/03/22 05:06:39;;;;;;;49.92;30.10;;;4.10;99.90;;;;;;4994718;28;20077;-65
2022/03/22 05:09:05;;;;;;;50.60;32.10;;;4.10;99.90;;;;;;4993781;28;20125;-65
2022/03/22 05:11:31;;;;;;;51.72;30.23;;;4.10;99.90;;;;;;4993050;28;20061;-64
2022/03/22 05:13:57;;;;;;;46.72;30.25;;;4.10;99.90;;;;;;4992747;28;20050;-65
2022/03/22 05:16:24;;;;;;;49.38;31.15;;;4.10;99.90;;;;;;4992658;28;20054;-65
2022/03/22 05:18:50;;;;;;;47.22;30.85;;;4.10;99.90;;;;;;5005951;28;20133;-65
2022/03/22 05:21:17;;;;;;;49.22;31.92;;;4.10;99.90;;;;;;4973501;28;20055;-66
2022/03/22 05:23:44;;;;;;;48.35;31.38;;;4.10;99.90;;;;;;4973422;28;20097;-66
2022/03/22 05:26:10;;;;;;;46.17;30.98;;;4.10;99.90;;;;;;4987690;28;20129;-66
2022/03/22 05:28:37;;;;;;;47.60;29.55;;;4.10;99.90;;;;;;4992371;28;20463;-65
2022/03/22 05:31:03;;;;;;;47.63;30.45;;;4.10;99.90;;;;;;4990274;28;20065;-65
2022/03/22 05:33:29;;;;;;;48.85;30.27;;;4.10;99.90;;;;;;4973168;28;20055;-65
2022/03/22 05:35:56;;;;;;;45.28;30.38;;;4.10;99.90;;;;;;4973212;28;20058;-66
2022/03/22 05:38:25;;;;;;;46.25;30.65;;;4.00;99.90;;;;;;4973625;28;20395;-65
2022/03/22 05:40:51;;;;;;;52.33;31.67;;;4.00;99.90;;;;;;4989365;28;20141;-65
2022/03/22 05:43:17;;;;;;;50.75;30.33;;;4.00;99.90;;;;;;4988980;28;20460;-65
2022/03/22 05:45:50;;;;;;;47.50;31.40;;;4.10;99.90;;;;;;4983157;28;20105;-66
2022/03/22 05:48:17;;;;;;;50.03;30.83;;;3.90;99.90;;;;;;4994925;28;20411;-65
2022/03/22 05:50:42;;;;;;;52.20;32.55;;;4.00;99.90;;;;;;4993721;28;20054;-65
2022/03/22 05:53:10;;;;;;;46.67;31.17;;;4.00;99.90;;;;;;4997274;28;20046;-65
2022/03/22 05:55:40;;;;;;;48.05;31.08;;;4.00;99.90;;;;;;5002709;28;20065;-66
2022/03/22 05:58:07;;;;;;;50.75;31.48;;;4.00;99.90;;;;;;4989881;28;20086;-68
2022/03/22 06:00:33;;;;;;;50.85;32.38;;;4.00;99.90;;;;;;4995734;28;20110;-66
2022/03/22 06:02:58;;;;;;;45.95;30.92;;;4.10;99.90;;;;;;4993309;28;20517;-66
2022/03/22 06:05:24;;;;;;;49.88;31.80;;;4.10;99.90;;;;;;5005494;28;20051;-67
2022/03/22 06:07:50;;;;;;;46.45;29.15;;;4.10;99.90;;;;;;5005299;28;20065;-66
2022/03/22 06:10:16;;;;;;;48.08;30.95;;;4.10;99.90;;;;;;4989238;28;20066;-66
2022/03/22 06:12:47;;;;;;;44.20;28.80;;;4.10;99.90;;;;;;4972821;28;20047;-67
2022/03/22 06:15:15;;;;;;;50.97;31.67;;;4.20;99.90;;;;;;4982364;28;20054;-67
2022/03/22 06:17:49;;;;;;;51.17;32.20;;;4.20;99.90;;;;;;4991923;28;20097;-66
2022/03/22 06:20:16;;;;;;;49.78;30.52;;;4.30;99.90;;;;;;4992414;28;20058;-66
2022/03/22 06:22:42;;;;;;;52.85;33.67;;;4.30;99.90;;;;;;4988882;28;20061;-67
2022/03/22 06:25:09;;;;;;;46.63;30.95;;;4.40;99.90;;;;;;4973180;28;20183;-66
2022/03/22 06:27:36;;;;;;;46.22;31.13;;;4.40;99.90;;;;;;4973760;28;20059;-67
2022/03/22 06:30:05;;;;;;;49.08;32.60;;;4.40;99.90;;;;;;4957046;28;20051;-67
2022/03/22 06:32:32;;;;;;;45.75;30.63;;;4.50;99.90;;;;;;4986714;28;20446;-67
2022/03/22 06:34:57;;;;;;;45.80;31.20;;;4.60;99.90;;;;;;4991819;28;20483;-65
2022/03/22 06:37:26;;;;;;;48.28;31.05;;;4.60;99.90;;;;;;4987555;28;20069;-66
2022/03/22 06:39:51;;;;;;;48.25;30.88;;;4.90;99.90;;;;;;4984117;28;20054;-67
2022/03/22 06:42:17;;;;;;;48.92;33.33;;;4.40;99.90;;;;;;4983142;28;20047;-65
2022/03/22 06:44:46;;;;;;;49.03;32.33;;;4.90;99.90;;;;;;4989732;28;20057;-65
2022/03/22 06:47:11;;;;;;;49.53;33.10;;;5.00;99.90;;;;;;4993466;28;20461;-66
2022/03/22 06:49:43;;;;;;;44.95;31.65;;;5.10;99.90;;;;;;4996901;28;20058;-65
2022/03/22 06:52:12;;;;;;;45.78;30.33;;;5.20;99.90;;;;;;4979239;28;20058;-66
2022/03/22 06:54:38;;;;;;;50.28;32.15;;;5.30;99.90;;;;;;4994919;28;20058;-66
2022/03/22 06:57:05;;;;;;;46.90;31.17;;;5.40;99.90;;;;;;4979227;28;20475;-67
2022/03/22 06:59:36;;;;;;;43.85;30.52;;;5.50;99.90;;;;;;4977403;28;20110;-68
2022/03/22 07:02:07;;;;;;;45.67;30.70;;;5.60;99.90;;;;;;4975454;28;20388;-68
2022/03/22 07:04:33;;;;;;;45.15;31.05;;;5.80;99.90;;;;;;4964856;28;20051;-67
2022/03/22 07:06:58;;;;;;;48.45;30.20;;;5.90;99.90;;;;;;4989362;28;20057;-66
2022/03/22 07:09:24;;;;;;;43.55;30.17;;;6.00;99.90;;;;;;4986094;28;20134;-67
2022/03/22 07:11:50;;;;;;;47.97;30.90;;;6.10;99.90;;;;;;4995283;28;20057;-66
2022/03/22 07:14:19;;;;;;;44.60;31.85;;;6.30;99.90;;;;;;5014736;28;20049;-66
2022/03/22 07:16:48;;;;;;;42.13;29.15;;;6.40;99.90;;;;;;5015727;28;20521;-66
2022/03/22 07:19:15;;;;;;;44.47;29.83;;;6.60;99.90;;;;;;5016294;28;20096;-67
2022/03/22 07:21:42;;;;;;;48.05;30.13;;;6.70;99.90;;;;;;4992814;28;20069;-67
2022/03/22 07:24:09;;;;;;;42.05;30.23;;;6.90;99.90;;;;;;4976058;28;20553;-65
2022/03/22 07:26:35;;;;;;;42.75;29.45;;;7.10;99.90;;;;;;4975647;28;20046;-65
2022/03/22 07:29:01;;;;;;;43.63;30.08;;;7.20;99.90;;;;;;4975951;28;20066;-65
2022/03/22 07:31:26;;;;;;;41.30;29.55;;;7.30;99.90;;;;;;4977033;28;20055;-65
2022/03/22 07:33:52;;;;;;;43.20;29.10;;;7.50;99.90;;;;;;4975676;28;20054;-68
2022/03/22 07:36:17;;;;;;;42.95;29.33;;;7.60;99.90;;;;;;4978047;28;20054;-67
2022/03/22 07:38:43;;;;;;;41.80;29.35;;;7.80;99.90;;;;;;4976657;28;20058;-67
2022/03/22 07:41:10;;;;;;;41.83;29.48;;;7.90;99.90;;;;;;4976002;28;20086;-65
2022/03/22 07:43:37;;;;;;;38.63;26.67;;;8.00;99.90;;;;;;4974898;28;20046;-67
2022/03/22 07:46:04;;;;;;;41.63;27.73;;;8.20;99.90;;;;;;4977639;28;20055;-67
2022/03/22 07:48:29;;;;;;;37.60;27.27;;;8.30;99.90;;;;;;4985379;28;20058;-67
2022/03/22 07:53:42;;;;;;;46.05;27.75;;;8.50;99.90;;;;;;4976562;28;20042;-67
2022/03/22 07:56:07;;;;;;;38.92;27.83;;;8.70;99.90;;;;;;4983596;28;20498;-67
2022/03/22 07:58:33;;;;;;;40.08;26.20;;;8.90;99.90;;;;;;4986632;28;20054;-67
2022/03/22 08:00:59;;;;;;;37.75;26.77;;;8.90;99.90;;;;;;4994002;28;20046;-67
2022/03/22 08:03:25;;;;;;;39.35;26.80;;;9.00;99.90;;;;;;5007243;28;20376;-67
2022/03/22 08:05:51;;;;;;;43.40;27.65;;;9.20;99.90;;;;;;5007695;28;20491;-67
2022/03/22 08:08:17;;;;;;;37.00;24.88;;;9.30;99.90;;;;;;4975188;28;20062;-68
2022/03/22 08:10:44;;;;;;;39.75;25.33;;;9.30;99.90;;;;;;4976534;28;20058;-68
2022/03/22 08:13:10;;;;;;;35.35;26.65;;;9.40;99.90;;;;;;4979126;28;20468;-67
2022/03/22 08:15:36;;;;;;;38.60;26.27;;;9.50;99.90;;;;;;4994303;28;20093;-67
2022/03/22 08:18:01;;;;;;;38.22;25.77;;;9.60;99.90;;;;;;4978066;28;20062;-67
2022/03/22 08:20:28;;;;;;;37.25;26.05;;;9.80;99.90;;;;;;4994464;28;20491;-67
2022/03/22 08:23:03;;;;;;;35.53;24.27;;;9.90;99.90;;;;;;4993487;28;20105;-66
2022/03/22 08:25:36;;;;;;;38.42;25.58;;;10.00;99.90;;;;;;4994007;28;20050;-69
2022/03/22 08:28:05;;;;;;;36.80;24.45;;;10.20;99.90;;;;;;4993412;28;20081;-67
2022/03/22 08:30:32;;;;;;;37.85;26.90;;;10.30;99.90;;;;;;4994426;28;20061;-67
2022/03/22 08:32:59;;;;;;;37.25;25.20;;;10.40;99.90;;;;;;4994051;28;20128;-67
2022/03/22 08:35:26;;;;;;;38.10;25.67;;;10.60;99.90;;;;;;4994672;28;20078;-67
2022/03/22 08:37:53;;;;;;;33.15;24.63;;;10.70;99.90;;;;;;4995183;28;20049;-68
2022/03/22 08:40:19;;;;;;;31.58;24.00;;;10.90;99.90;;;;;;4993971;28;20137;-68
2022/03/22 08:42:47;;;;;;;37.75;23.77;;;11.00;99.90;;;;;;4987508;28;20080;-68
2022/03/22 08:45:15;;;;;;;39.33;24.98;;;11.20;99.90;;;;;;4975736;28;20047;-67
2022/03/22 08:47:41;;;;;;;32.30;23.45;;;11.30;99.90;;;;;;4975632;28;20110;-67
2022/03/22 08:50:11;;;;;;;35.90;23.95;;;11.50;99.90;;;;;;4975313;28;20050;-67
2022/03/22 08:52:38;;;;;;;32.00;24.15;;;11.60;99.90;;;;;;4982750;28;20054;-67
2022/03/22 08:55:07;;;;;;;30.08;22.30;;;11.80;99.90;;;;;;4973968;28;20133;-68
2022/03/22 08:57:33;;;;;;;32.28;23.38;;;11.90;99.90;;;;;;4974962;28;20043;-67
2022/03/22 08:59:58;;;;;;;33.50;23.08;;;12.10;99.90;;;;;;4973961;28;20054;-68
2022/03/22 09:02:24;;;;;;;34.67;22.38;;;12.30;99.90;;;;;;4973909;28;20061;-68
2022/03/22 09:07:33;;;;;;;29.58;21.65;;;12.60;99.90;;;;;;4973874;28;20050;-67
2022/03/22 09:09:59;;;;;;;30.65;21.02;;;12.80;99.90;;;;;;4973614;28;20058;-67
2022/03/22 09:12:25;;;;;;;29.55;22.33;;;13.00;99.90;;;;;;4973761;28;20050;-68
2022/03/22 09:14:53;;;;;;;27.23;21.23;;;13.10;99.90;;;;;;4957903;28;20506;-67
2022/03/22 09:17:19;;;;;;;30.77;22.38;;;13.20;99.90;;;;;;4975077;28;20050;-69
2022/03/22 09:19:45;;;;;;;28.80;22.17;;;13.30;99.90;;;;;;4975220;28;20129;-67
2022/03/22 09:22:11;;;;;;;33.70;22.77;;;13.40;99.90;;;;;;4973731;28;20506;-66
2022/03/22 09:24:36;;;;;;;32.45;22.45;;;13.50;99.90;;;;;;4980093;28;20042;-68
2022/03/22 09:27:03;;;;;;;29.13;22.10;;;13.70;99.90;;;;;;4983582;28;20065;-65
2022/03/22 09:29:29;;;;;;;31.65;21.40;;;13.70;99.90;;;;;;4984207;28;20942;-67
2022/03/22 09:31:55;;;;;;;32.70;22.63;;;13.80;99.90;;;;;;4974107;28;20064;-67
2022/03/22 09:34:22;;;;;;;29.63;21.33;;;13.80;99.90;;;;;;4983628;28;20054;-68
2022/03/22 09:36:48;;;;;;;32.85;22.17;;;13.80;99.90;;;;;;5009084;28;20058;-66
2022/03/22 09:39:13;;;;;;;30.48;22.83;;;14.00;99.90;;;;;;4979478;28;20407;-66
2022/03/22 09:41:40;;;;;;;29.52;21.55;;;14.10;99.90;;;;;;4979856;28;20466;-67
2022/03/22 09:44:06;;;;;;;33.28;22.92;;;14.20;99.90;;;;;;4993059;28;20061;-66
2022/03/22 09:46:34;;;;;;;33.72;22.42;;;14.30;99.90;;;;;;4991988;28;20042;-67
2022/03/22 09:49:00;;;;;;;26.23;20.65;;;14.40;99.90;;;;;;4992955;28;20047;-68
2022/03/22 09:54:12;;;;;;;33.80;23.30;;;14.60;99.90;;;;;;4994015;28;20130;-64
2022/03/22 09:56:42;;;;;;;28.63;22.27;;;14.70;99.90;;;;;;4993449;28;20061;-65
2022/03/22 09:59:08;;;;;;;29.85;22.20;;;14.70;99.90;;;;;;4993728;28;20126;-67
2022/03/22 10:01:34;;;;;;;28.65;21.80;;;14.70;99.90;;;;;;4992100;28;20489;-66
2022/03/22 10:04:06;;;;;;;32.53;22.15;;;14.90;99.90;;;;;;4992516;28;20054;-67
2022/03/22 10:06:33;;;;;;;30.48;22.85;;;14.90;98.20;;;;;;4987255;28;20055;-66
2022/03/22 10:08:59;;;;;;;29.33;22.88;;;15.00;99.90;;;;;;4973906;28;20447;-69
2022/03/22 10:11:35;;;;;;;29.10;21.90;;;15.10;99.90;;;;;;4972646;28;20061;-66
2022/03/22 10:14:01;;;;;;;27.15;20.98;;;15.10;99.90;;;;;;4973145;28;20061;-66
2022/03/22 10:16:27;;;;;;;29.08;20.25;;;15.20;99.90;;;;;;4972068;28;20050;-67
2022/03/22 10:18:53;;;;;;;30.73;21.63;;;15.30;99.90;;;;;;4993605;28;20054;-64
2022/03/22 10:21:19;;;;;;;30.85;22.23;;;15.50;99.90;;;;;;4991304;28;20050;-65
2022/03/22 10:23:53;;;;;;;33.15;22.50;;;15.60;96.00;;;;;;4993197;28;20137;-64
2022/03/22 10:26:19;;;;;;;33.47;23.23;;;15.80;96.30;;;;;;5008341;28;20560;-65
2022/03/22 10:28:55;;;;;;;30.70;22.45;;;15.90;95.80;;;;;;4991129;28;20046;-66
2022/03/22 10:31:38;;;;;;;31.30;22.17;;;16.10;93.00;;;;;;4992687;28;20116;-66
2022/03/22 10:34:04;;;;;;;28.33;21.77;;;16.10;87.40;;;;;;4992267;28;20054;-66
2022/03/22 10:36:36;;;;;;;28.45;21.60;;;16.20;93.30;;;;;;4991433;28;20057;-65
2022/03/22 10:39:06;;;;;;;28.00;22.10;;;16.20;86.40;;;;;;4991628;28;20058;-66
2022/03/22 10:41:37;;;;;;;30.13;21.63;;;16.30;85.70;;;;;;4990566;28;20050;-65
2022/03/22 10:44:15;;;;;;;30.25;21.83;;;16.40;85.00;;;;;;4992505;28;20050;-66
2022/03/22 10:46:44;;;;;;;29.60;22.15;;;16.50;77.40;;;;;;4992350;28;20106;-66
2022/03/22 10:49:16;;;;;;;27.42;21.30;;;16.50;78.50;;;;;;4992147;28;20378;-65
2022/03/22 10:51:49;;;;;;;31.33;22.10;;;16.60;77.80;;;;;;4972989;28;20066;-65
2022/03/22 10:54:18;;;;;;;29.45;22.17;;;16.60;74.50;;;;;;4976239;28;20530;-65
2022/03/22 10:56:53;;;;;;;30.02;22.65;;;16.60;76.80;;;;;;4972535;28;20054;-65
2022/03/22 10:59:23;;;;;;;30.20;22.80;;;16.60;77.80;;;;;;4972497;28;20094;-66
2022/03/22 11:01:50;;;;;;;27.83;21.45;;;16.70;80.70;;;;;;4972604;28;20078;-65
2022/03/22 11:04:16;;;;;;;27.02;20.88;;;16.80;80.20;;;;;;4973562;28;20082;-65
2022/03/22 11:06:46;;;;;;;25.80;20.50;;;16.90;78.20;;;;;;4990235;28;20054;-65
2022/03/22 11:09:22;;;;;;;28.58;21.55;;;17.00;75.40;;;;;;4993109;28;20057;-66
2022/03/22 11:11:50;;;;;;;32.15;22.25;;;17.00;77.20;;;;;;4988341;28;20051;-66
2022/03/22 11:14:17;;;;;;;29.08;22.58;;;17.10;76.70;;;;;;4983715;28;20053;-65
2022/03/22 11:16:47;;;;;;;29.35;22.85;;;17.20;74.20;;;;;;4982460;28;20085;-66
2022/03/22 11:19:15;;;;;;;27.02;22.02;;;17.20;70.70;;;;;;4986460;28;20383;-65
2022/03/22 11:21:41;;;;;;;30.10;23.00;;;17.30;71.40;;;;;;4991527;28;20395;-65
2022/03/22 11:24:12;;;;;;;30.80;22.83;;;17.30;70.40;;;;;;4987206;28;20454;-66
2022/03/22 11:26:38;;;;;;;31.95;22.40;;;17.40;68.40;;;;;;4984737;28;20051;-64
2022/03/22 11:29:04;;;;;;;28.85;21.48;;;17.40;69.50;;;;;;4979256;28;20058;-65
2022/03/22 11:31:30;;;;;;;28.38;21.48;;;17.50;68.50;;;;;;4983807;28;20497;-66
2022/03/22 11:34:09;;;;;;;30.30;21.83;;;17.60;67.30;;;;;;4984055;28;20047;-65
2022/03/22 11:36:42;;;;;;;30.58;22.90;;;17.70;65.60;;;;;;4994945;28;20050;-67
2022/03/22 11:39:08;;;;;;;33.10;23.25;;;17.70;64.60;;;;;;4995829;28;20050;-65
2022/03/22 11:44:27;;;;;;;29.67;22.38;;;17.70;64.40;;;;;;4985928;28;20490;-66
2022/03/22 11:47:14;;;;;;;33.25;21.88;;;17.80;64.40;;;;;;4993812;28;20050;-65
2022/03/22 11:49:52;;;;;;;31.15;23.13;;;17.90;64.60;;;;;;4988909;28;20043;-66
2022/03/22 11:52:23;;;;;;;31.73;21.65;;;18.00;65.10;;;;;;4995608;28;20046;-66
2022/03/22 11:55:00;;;;;;;30.98;21.27;;;18.00;65.40;;;;;;4983156;28;20054;-65
2022/03/22 11:57:39;;;;;;;28.58;21.48;;;18.00;63.80;;;;;;4983507;28;20050;-66
2022/03/22 12:00:05;;;;;;;29.38;21.70;;;18.10;64.80;;;;;;4985148;28;20523;-66
2022/03/22 12:02:31;;;;;;;29.00;21.77;;;18.20;64.70;;;;;;4975126;28;20133;-65
2022/03/22 12:04:57;;;;;;;27.88;21.63;;;18.20;63.60;;;;;;4978689;28;20469;-65
2022/03/22 12:07:30;;;;;;;28.95;20.35;;;18.20;63.30;;;;;;4992480;28;20050;-66
2022/03/22 12:10:07;;;;;;;27.38;19.85;;;18.30;63.00;;;;;;4985045;28;20074;-66
2022/03/22 12:12:34;;;;;;;27.48;19.33;;;18.40;61.90;;;;;;4989668;28;20046;-66
2022/03/22 12:15:03;;;;;;;28.13;20.75;;;18.40;62.50;;;;;;4995459;28;20092;-66
2022/03/22 12:17:29;;;;;;;30.33;20.13;;;18.50;61.90;;;;;;4993777;28;20133;-67
2022/03/22 12:20:09;;;;;;;28.13;19.75;;;18.50;61.10;;;;;;4994020;28;20085;-66
2022/03/22 12:22:38;;;;;;;27.95;18.90;;;18.50;60.70;;;;;;5007289;28;20054;-67
2022/03/22 12:25:05;;;;;;;26.13;19.52;;;18.50;61.30;;;;;;4976244;28;20058;-66
2022/03/22 12:27:36;;;;;;;26.45;20.27;;;18.70;61.20;;;;;;4974033;28;20352;-67
2022/03/22 12:30:02;;;;;;;28.05;19.40;;;18.80;60.30;;;;;;4975306;28;20142;-67
2022/03/22 12:32:29;;;;;;;28.10;19.00;;;18.90;59.70;;;;;;4973986;28;20139;-67
2022/03/22 12:34:56;;;;;;;27.35;19.17;;;19.00;59.20;;;;;;4974136;28;20059;-66
2022/03/22 12:37:22;;;;;;;30.00;19.55;;;19.10;58.90;;;;;;4982234;28;20066;-67
2022/03/22 12:39:49;;;;;;;31.05;20.70;;;19.20;58.30;;;;;;4985422;28;20053;-67
2022/03/22 12:42:16;;;;;;;28.20;19.27;;;19.30;57.90;;;;;;4981843;28;20054;-66
2022/03/22 12:44:42;;;;;;;28.60;19.63;;;19.30;57.90;;;;;;4984399;28;20065;-66
2022/03/22 12:47:08;;;;;;;27.13;20.10;;;19.30;58.40;;;;;;4974124;28;20133;-67
2022/03/22 12:49:35;;;;;;;29.85;20.15;;;19.30;57.70;;;;;;4974095;28;20482;-66
2022/03/22 12:52:02;;;;;;;27.63;19.70;;;19.30;57.40;;;;;;4975734;28;20070;-67
2022/03/22 12:54:36;;;;;;;27.35;18.83;;;19.30;58.40;;;;;;4993097;28;20133;-69
2022/03/22 12:57:08;;;;;;;25.00;19.02;;;19.40;56.40;;;;;;4976621;28;20055;-67
2022/03/22 12:59:34;;;;;;;28.27;19.90;;;19.50;56.90;;;;;;4978308;28;20101;-68
2022/03/22 13:02:05;;;;;;;25.75;18.92;;;19.40;57.40;;;;;;4994562;28;20282;-67